sensor_id;sensor_type;location;lat;lon;timestamp;P1;durP1;ratioP1;P2;durP2;ratioP2
16892;SDS011;8563;52.242;9.098;2023-02-03T00:02:20;20.40;;;18.20;;
16892;SDS011;8563;52.242;9.098;2023-02-03T00:04:52;19.27;;;17.30;;
16892;SDS011;8563;52.242;9.098;2023-02-03T00:07:24;21.73;;;17.60;;
16892;SDS011;8563;52.242;9.098;2023-02-03T00:09:56;23.50;;;18.43;;
16892;SDS011;8563;52.242;9.098;2023-02-03T00:12:28;27.43;;;17.63;;
16892;SDS011;8563;52.242;9.098;2023-02-03T00:15:02;18.57;;;16.50;;
16892;SDS011;8563;52.242;9.098;2023-02-03T00:17:35;18.20;;;16.23;;
16892;SDS011;8563;52.242;9.098;2023-02-03T00:20:07;21.50;;;17.33;;
16892;SDS011;8563;52.242;9.098;2023-02-03T00:22:42;22.23;;;17.63;;
16892;SDS011;8563;52.242;9.098;2023-02-03T00:25:14;19.53;;;16.30;;
16892;SDS011;8563;52.242;9.098;2023-02-03T00:27:46;18.70;;;16.67;;
16892;SDS011;8563;52.242;9.098;2023-02-03T00:30:20;19.33;;;16.10;;
16892;SDS011;8563;52.242;9.098;2023-02-03T00:32:53;18.40;;;15.93;;
16892;SDS011;8563;52.242;9.098;2023-02-03T00:35:25;17.33;;;15.43;;
16892;SDS011;8563;52.242;9.098;2023-02-03T00:37:58;17.47;;;14.17;;
16892;SDS011;8563;52.242;9.098;2023-02-03T00:40:30;21.10;;;15.87;;
16892;SDS011;8563;52.242;9.098;2023-02-03T00:43:02;18.43;;;14.50;;
16892;SDS011;8563;52.242;9.098;2023-02-03T00:45:37;15.53;;;13.93;;
16892;SDS011;8563;52.242;9.098;2023-02-03T00:48:09;18.63;;;14.80;;
16892;SDS011;8563;52.242;9.098;2023-02-03T00:50:41;17.10;;;14.30;;
16892;SDS011;8563;52.242;9.098;2023-02-03T00:53:13;17.63;;;14.47;;
16892;SDS011;8563;52.242;9.098;2023-02-03T00:55:45;15.37;;;13.77;;
16892;SDS011;8563;52.242;9.098;2023-02-03T00:58:18;16.00;;;13.20;;
16892;SDS011;8563;52.242;9.098;2023-02-03T01:00:52;18.80;;;14.50;;
16892;SDS011;8563;52.242;9.098;2023-02-03T01:03:25;19.00;;;14.37;;
16892;SDS011;8563;52.242;9.098;2023-02-03T01:06:06;15.50;;;13.10;;
16892;SDS011;8563;52.242;9.098;2023-02-03T01:08:40;19.47;;;14.53;;
16892;SDS011;8563;52.242;9.098;2023-02-03T01:11:13;17.37;;;13.23;;
16892;SDS011;8563;52.242;9.098;2023-02-03T01:13:47;15.50;;;13.87;;
16892;SDS011;8563;52.242;9.098;2023-02-03T01:16:22;18.23;;;13.50;;
16892;SDS011;8563;52.242;9.098;2023-02-03T01:18:55;16.63;;;13.83;;
16892;SDS011;8563;52.242;9.098;2023-02-03T01:21:27;20.17;;;13.57;;
16892;SDS011;8563;52.242;9.098;2023-02-03T01:23:59;14.17;;;12.77;;
16892;SDS011;8563;52.242;9.098;2023-02-03T01:26:32;16.07;;;13.50;;
16892;SDS011;8563;52.242;9.098;2023-02-03T01:29:04;18.07;;;13.43;;
16892;SDS011;8563;52.242;9.098;2023-02-03T01:31:38;17.43;;;12.87;;
16892;SDS011;8563;52.242;9.098;2023-02-03T01:34:12;14.67;;;12.07;;
16892;SDS011;8563;52.242;9.098;2023-02-03T01:36:47;16.37;;;12.80;;
16892;SDS011;8563;52.242;9.098;2023-02-03T01:39:19;16.03;;;12.00;;
16892;SDS011;8563;52.242;9.098;2023-02-03T01:41:53;15.57;;;12.23;;
16892;SDS011;8563;52.242;9.098;2023-02-03T01:44:34;16.20;;;12.07;;
16892;SDS011;8563;52.242;9.098;2023-02-03T01:47:21;16.40;;;12.40;;
16892;SDS011;8563;52.242;9.098;2023-02-03T01:50:02;15.97;;;12.30;;
16892;SDS011;8563;52.242;9.098;2023-02-03T01:52:43;14.63;;;11.63;;
16892;SDS011;8563;52.242;9.098;2023-02-03T01:55:21;15.13;;;12.73;;
16892;SDS011;8563;52.242;9.098;2023-02-03T01:58:00;14.37;;;12.03;;
16892;SDS011;8563;52.242;9.098;2023-02-03T02:00:35;16.20;;;11.73;;
16892;SDS011;8563;52.242;9.098;2023-02-03T02:03:09;16.13;;;11.80;;
16892;SDS011;8563;52.242;9.098;2023-02-03T02:05:42;15.40;;;11.93;;
16892;SDS011;8563;52.242;9.098;2023-02-03T02:08:19;12.83;;;11.50;;
16892;SDS011;8563;52.242;9.098;2023-02-03T02:10:52;14.33;;;11.60;;
16892;SDS011;8563;52.242;9.098;2023-02-03T02:13:25;11.50;;;10.30;;
16892;SDS011;8563;52.242;9.098;2023-02-03T02:16:00;12.60;;;10.00;;
16892;SDS011;8563;52.242;9.098;2023-02-03T02:18:45;12.73;;;10.70;;
16892;SDS011;8563;52.242;9.098;2023-02-03T02:27:48;13.73;;;11.20;;
16892;SDS011;8563;52.242;9.098;2023-02-03T02:30:52;10.40;;;9.27;;
16892;SDS011;8563;52.242;9.098;2023-02-03T02:33:55;12.93;;;9.80;;
16892;SDS011;8563;52.242;9.098;2023-02-03T02:36:32;11.80;;;9.30;;
16892;SDS011;8563;52.242;9.098;2023-02-03T02:39:11;11.43;;;9.50;;
16892;SDS011;8563;52.242;9.098;2023-02-03T02:41:51;13.77;;;9.10;;
16892;SDS011;8563;52.242;9.098;2023-02-03T02:44:29;10.83;;;8.67;;
16892;SDS011;8563;52.242;9.098;2023-02-03T02:47:05;12.80;;;10.07;;
16892;SDS011;8563;52.242;9.098;2023-02-03T02:49:45;14.40;;;9.23;;
16892;SDS011;8563;52.242;9.098;2023-02-03T02:52:22;13.03;;;8.90;;
16892;SDS011;8563;52.242;9.098;2023-02-03T02:54:59;13.50;;;9.27;;
16892;SDS011;8563;52.242;9.098;2023-02-03T02:57:34;12.53;;;9.00;;
16892;SDS011;8563;52.242;9.098;2023-02-03T03:00:09;12.23;;;8.80;;
16892;SDS011;8563;52.242;9.098;2023-02-03T03:02:43;10.80;;;9.43;;
16892;SDS011;8563;52.242;9.098;2023-02-03T03:05:17;12.87;;;8.90;;
16892;SDS011;8563;52.242;9.098;2023-02-03T03:07:54;11.23;;;9.30;;
16892;SDS011;8563;52.242;9.098;2023-02-03T03:10:32;11.13;;;8.97;;
16892;SDS011;8563;52.242;9.098;2023-02-03T03:13:07;13.80;;;9.50;;
16892;SDS011;8563;52.242;9.098;2023-02-03T03:15:44;11.63;;;9.03;;
16892;SDS011;8563;52.242;9.098;2023-02-03T03:18:17;11.33;;;8.43;;
16892;SDS011;8563;52.242;9.098;2023-02-03T03:20:56;11.37;;;8.60;;
16892;SDS011;8563;52.242;9.098;2023-02-03T03:23:36;10.67;;;8.97;;
16892;SDS011;8563;52.242;9.098;2023-02-03T03:26:12;13.03;;;8.93;;
16892;SDS011;8563;52.242;9.098;2023-02-03T03:28:47;13.20;;;8.80;;
16892;SDS011;8563;52.242;9.098;2023-02-03T03:31:23;15.10;;;8.60;;
16892;SDS011;8563;52.242;9.098;2023-02-03T03:33:55;13.80;;;8.53;;
16892;SDS011;8563;52.242;9.098;2023-02-03T03:36:30;10.73;;;8.17;;
16892;SDS011;8563;52.242;9.098;2023-02-03T03:39:08;12.00;;;8.17;;
16892;SDS011;8563;52.242;9.098;2023-02-03T03:41:48;11.47;;;7.80;;
16892;SDS011;8563;52.242;9.098;2023-02-03T03:44:28;13.13;;;8.03;;
16892;SDS011;8563;52.242;9.098;2023-02-03T03:47:09;13.00;;;8.43;;
16892;SDS011;8563;52.242;9.098;2023-02-03T03:49:47;8.90;;;7.47;;
16892;SDS011;8563;52.242;9.098;2023-02-03T03:52:24;11.87;;;8.33;;
16892;SDS011;8563;52.242;9.098;2023-02-03T03:54:59;12.33;;;7.27;;
16892;SDS011;8563;52.242;9.098;2023-02-03T03:57:34;10.67;;;8.17;;
16892;SDS011;8563;52.242;9.098;2023-02-03T04:00:10;10.70;;;7.63;;
16892;SDS011;8563;52.242;9.098;2023-02-03T04:02:47;12.10;;;7.13;;
16892;SDS011;8563;52.242;9.098;2023-02-03T04:05:23;10.37;;;6.93;;
16892;SDS011;8563;52.242;9.098;2023-02-03T04:07:57;10.40;;;7.10;;
16892;SDS011;8563;52.242;9.098;2023-02-03T04:10:31;9.63;;;7.63;;
16892;SDS011;8563;52.242;9.098;2023-02-03T04:13:04;11.03;;;7.53;;
16892;SDS011;8563;52.242;9.098;2023-02-03T04:15:38;9.70;;;6.87;;
16892;SDS011;8563;52.242;9.098;2023-02-03T04:18:10;8.13;;;6.33;;
16892;SDS011;8563;52.242;9.098;2023-02-03T04:20:44;11.87;;;6.43;;
16892;SDS011;8563;52.242;9.098;2023-02-03T04:23:18;11.63;;;6.90;;
16892;SDS011;8563;52.242;9.098;2023-02-03T04:25:50;12.20;;;6.90;;
16892;SDS011;8563;52.242;9.098;2023-02-03T04:28:22;13.07;;;6.97;;
16892;SDS011;8563;52.242;9.098;2023-02-03T04:30:54;13.03;;;7.17;;
16892;SDS011;8563;52.242;9.098;2023-02-03T04:33:30;10.83;;;7.00;;
16892;SDS011;8563;52.242;9.098;2023-02-03T04:36:02;13.97;;;6.43;;
16892;SDS011;8563;52.242;9.098;2023-02-03T04:38:36;10.17;;;6.93;;
16892;SDS011;8563;52.242;9.098;2023-02-03T04:41:08;11.33;;;6.87;;
16892;SDS011;8563;52.242;9.098;2023-02-03T04:43:40;11.17;;;6.13;;
16892;SDS011;8563;52.242;9.098;2023-02-03T04:46:13;9.63;;;6.17;;
16892;SDS011;8563;52.242;9.098;2023-02-03T04:48:45;9.07;;;6.33;;
16892;SDS011;8563;52.242;9.098;2023-02-03T04:51:17;9.80;;;5.13;;
16892;SDS011;8563;52.242;9.098;2023-02-03T04:53:50;7.83;;;5.63;;
16892;SDS011;8563;52.242;9.098;2023-02-03T04:56:22;10.03;;;5.63;;
16892;SDS011;8563;52.242;9.098;2023-02-03T04:58:54;10.17;;;5.77;;
16892;SDS011;8563;52.242;9.098;2023-02-03T05:01:26;10.30;;;5.70;;
16892;SDS011;8563;52.242;9.098;2023-02-03T05:03:59;9.27;;;5.60;;
16892;SDS011;8563;52.242;9.098;2023-02-03T05:06:31;9.20;;;5.47;;
16892;SDS011;8563;52.242;9.098;2023-02-03T05:09:05;11.17;;;5.60;;
16892;SDS011;8563;52.242;9.098;2023-02-03T05:11:38;8.93;;;5.00;;
16892;SDS011;8563;52.242;9.098;2023-02-03T05:14:10;10.67;;;5.40;;
16892;SDS011;8563;52.242;9.098;2023-02-03T05:16:43;9.00;;;4.97;;
16892;SDS011;8563;52.242;9.098;2023-02-03T05:19:15;7.87;;;4.93;;
16892;SDS011;8563;52.242;9.098;2023-02-03T05:21:47;9.87;;;4.43;;
16892;SDS011;8563;52.242;9.098;2023-02-03T05:24:21;6.90;;;4.40;;
16892;SDS011;8563;52.242;9.098;2023-02-03T05:26:53;13.10;;;4.87;;
16892;SDS011;8563;52.242;9.098;2023-02-03T05:29:25;8.97;;;4.70;;
16892;SDS011;8563;52.242;9.098;2023-02-03T05:31:57;7.87;;;4.70;;
16892;SDS011;8563;52.242;9.098;2023-02-03T05:34:29;10.97;;;4.50;;
16892;SDS011;8563;52.242;9.098;2023-02-03T05:37:02;7.73;;;4.13;;
16892;SDS011;8563;52.242;9.098;2023-02-03T05:39:35;9.37;;;4.47;;
16892;SDS011;8563;52.242;9.098;2023-02-03T05:42:07;10.47;;;4.27;;
16892;SDS011;8563;52.242;9.098;2023-02-03T05:44:39;16.77;;;4.90;;
16892;SDS011;8563;52.242;9.098;2023-02-03T05:47:11;9.73;;;4.53;;
16892;SDS011;8563;52.242;9.098;2023-02-03T05:49:43;8.90;;;3.77;;
16892;SDS011;8563;52.242;9.098;2023-02-03T05:52:15;6.17;;;3.67;;
16892;SDS011;8563;52.242;9.098;2023-02-03T05:54:49;10.80;;;4.50;;
16892;SDS011;8563;52.242;9.098;2023-02-03T05:57:21;7.40;;;3.70;;
16892;SDS011;8563;52.242;9.098;2023-02-03T05:59:53;10.10;;;4.10;;
16892;SDS011;8563;52.242;9.098;2023-02-03T06:02:25;11.57;;;4.30;;
16892;SDS011;8563;52.242;9.098;2023-02-03T06:04:57;7.33;;;4.03;;
16892;SDS011;8563;52.242;9.098;2023-02-03T06:07:30;8.40;;;4.10;;
16892;SDS011;8563;52.242;9.098;2023-02-03T06:10:04;9.97;;;3.90;;
16892;SDS011;8563;52.242;9.098;2023-02-03T06:12:37;7.97;;;4.30;;
16892;SDS011;8563;52.242;9.098;2023-02-03T06:15:10;11.37;;;4.10;;
16892;SDS011;8563;52.242;9.098;2023-02-03T06:17:42;7.70;;;4.47;;
16892;SDS011;8563;52.242;9.098;2023-02-03T06:20:16;13.90;;;5.33;;
16892;SDS011;8563;52.242;9.098;2023-02-03T06:22:49;9.80;;;4.20;;
16892;SDS011;8563;52.242;9.098;2023-02-03T06:25:23;9.03;;;4.27;;
16892;SDS011;8563;52.242;9.098;2023-02-03T06:27:55;9.30;;;4.70;;
16892;SDS011;8563;52.242;9.098;2023-02-03T06:30:27;9.93;;;4.63;;
16892;SDS011;8563;52.242;9.098;2023-02-03T06:32:59;8.87;;;4.20;;
16892;SDS011;8563;52.242;9.098;2023-02-03T06:35:31;11.37;;;4.60;;
16892;SDS011;8563;52.242;9.098;2023-02-03T06:38:03;8.43;;;4.03;;
16892;SDS011;8563;52.242;9.098;2023-02-03T06:40:37;9.20;;;4.60;;
16892;SDS011;8563;52.242;9.098;2023-02-03T06:43:09;10.33;;;4.37;;
16892;SDS011;8563;52.242;9.098;2023-02-03T06:45:43;5.53;;;4.60;;
16892;SDS011;8563;52.242;9.098;2023-02-03T06:48:16;10.50;;;4.80;;
16892;SDS011;8563;52.242;9.098;2023-02-03T06:50:48;7.10;;;4.43;;
16892;SDS011;8563;52.242;9.098;2023-02-03T06:53:20;7.07;;;4.20;;
16892;SDS011;8563;52.242;9.098;2023-02-03T06:55:54;8.47;;;4.57;;
16892;SDS011;8563;52.242;9.098;2023-02-03T06:58:26;8.10;;;4.80;;
16892;SDS011;8563;52.242;9.098;2023-02-03T07:00:58;7.30;;;4.40;;
16892;SDS011;8563;52.242;9.098;2023-02-03T07:03:30;7.77;;;4.97;;
16892;SDS011;8563;52.242;9.098;2023-02-03T07:06:03;8.67;;;4.80;;
16892;SDS011;8563;52.242;9.098;2023-02-03T07:08:35;7.50;;;5.23;;
16892;SDS011;8563;52.242;9.098;2023-02-03T07:11:09;10.30;;;5.20;;
16892;SDS011;8563;52.242;9.098;2023-02-03T07:13:41;6.73;;;5.10;;
16892;SDS011;8563;52.242;9.098;2023-02-03T07:16:13;8.83;;;5.90;;
16892;SDS011;8563;52.242;9.098;2023-02-03T07:18:46;8.70;;;5.50;;
16892;SDS011;8563;52.242;9.098;2023-02-03T07:21:18;8.50;;;5.80;;
16892;SDS011;8563;52.242;9.098;2023-02-03T07:23:50;6.97;;;5.50;;
16892;SDS011;8563;52.242;9.098;2023-02-03T07:26:24;7.63;;;5.90;;
16892;SDS011;8563;52.242;9.098;2023-02-03T07:28:57;9.50;;;6.20;;
16892;SDS011;8563;52.242;9.098;2023-02-03T07:31:30;7.77;;;5.70;;
16892;SDS011;8563;52.242;9.098;2023-02-03T07:34:02;8.13;;;5.77;;
16892;SDS011;8563;52.242;9.098;2023-02-03T07:36:35;7.33;;;5.90;;
16892;SDS011;8563;52.242;9.098;2023-02-03T07:39:07;5.93;;;5.30;;
16892;SDS011;8563;52.242;9.098;2023-02-03T07:41:41;7.70;;;5.97;;
16892;SDS011;8563;52.242;9.098;2023-02-03T07:44:13;8.60;;;5.83;;
16892;SDS011;8563;52.242;9.098;2023-02-03T07:46:45;7.23;;;5.77;;
16892;SDS011;8563;52.242;9.098;2023-02-03T07:49:17;7.80;;;5.80;;
16892;SDS011;8563;52.242;9.098;2023-02-03T07:51:50;6.60;;;5.57;;
16892;SDS011;8563;52.242;9.098;2023-02-03T07:54:22;5.67;;;5.13;;
16892;SDS011;8563;52.242;9.098;2023-02-03T07:56:55;10.20;;;5.70;;
16892;SDS011;8563;52.242;9.098;2023-02-03T07:59:27;8.23;;;5.57;;
16892;SDS011;8563;52.242;9.098;2023-02-03T08:02:00;8.77;;;5.70;;
16892;SDS011;8563;52.242;9.098;2023-02-03T08:04:32;8.67;;;5.90;;
16892;SDS011;8563;52.242;9.098;2023-02-03T08:07:04;10.70;;;6.07;;
16892;SDS011;8563;52.242;9.098;2023-02-03T08:09:36;7.00;;;6.13;;
16892;SDS011;8563;52.242;9.098;2023-02-03T08:12:11;8.33;;;6.37;;
16892;SDS011;8563;52.242;9.098;2023-02-03T08:14:43;6.93;;;5.20;;
16892;SDS011;8563;52.242;9.098;2023-02-03T08:17:15;7.57;;;5.40;;
16892;SDS011;8563;52.242;9.098;2023-02-03T08:19:47;8.03;;;5.10;;
16892;SDS011;8563;52.242;9.098;2023-02-03T08:22:19;7.83;;;6.10;;
16892;SDS011;8563;52.242;9.098;2023-02-03T08:24:51;5.83;;;4.87;;
16892;SDS011;8563;52.242;9.098;2023-02-03T08:27:25;7.40;;;5.23;;
16892;SDS011;8563;52.242;9.098;2023-02-03T08:29:57;6.07;;;5.10;;
16892;SDS011;8563;52.242;9.098;2023-02-03T08:32:29;9.97;;;5.93;;
16892;SDS011;8563;52.242;9.098;2023-02-03T08:35:03;7.80;;;5.27;;
16892;SDS011;8563;52.242;9.098;2023-02-03T08:37:36;9.43;;;5.13;;
16892;SDS011;8563;52.242;9.098;2023-02-03T08:40:09;8.27;;;5.27;;
16892;SDS011;8563;52.242;9.098;2023-02-03T08:42:44;10.02;;;6.43;;
16892;SDS011;8563;52.242;9.098;2023-02-03T08:45:16;8.30;;;6.10;;
16892;SDS011;8563;52.242;9.098;2023-02-03T08:47:48;8.97;;;5.47;;
16892;SDS011;8563;52.242;9.098;2023-02-03T08:50:20;12.53;;;5.70;;
16892;SDS011;8563;52.242;9.098;2023-02-03T08:52:52;9.57;;;5.80;;
16892;SDS011;8563;52.242;9.098;2023-02-03T08:55:24;9.63;;;5.27;;
16892;SDS011;8563;52.242;9.098;2023-02-03T08:57:58;13.00;;;5.67;;
16892;SDS011;8563;52.242;9.098;2023-02-03T09:00:30;8.10;;;4.47;;
16892;SDS011;8563;52.242;9.098;2023-02-03T09:03:02;7.90;;;4.47;;
16892;SDS011;8563;52.242;9.098;2023-02-03T09:05:35;5.63;;;4.10;;
16892;SDS011;8563;52.242;9.098;2023-02-03T09:08:07;8.20;;;3.70;;
16892;SDS011;8563;52.242;9.098;2023-02-03T09:10:39;9.43;;;3.97;;
16892;SDS011;8563;52.242;9.098;2023-02-03T09:13:13;10.53;;;4.23;;
16892;SDS011;8563;52.242;9.098;2023-02-03T09:15:45;7.73;;;3.70;;
16892;SDS011;8563;52.242;9.098;2023-02-03T09:18:17;6.40;;;3.57;;
16892;SDS011;8563;52.242;9.098;2023-02-03T09:20:49;7.63;;;3.27;;
16892;SDS011;8563;52.242;9.098;2023-02-03T09:23:21;7.37;;;3.70;;
16892;SDS011;8563;52.242;9.098;2023-02-03T09:25:54;7.77;;;3.03;;
16892;SDS011;8563;52.242;9.098;2023-02-03T09:28:28;8.17;;;2.83;;
16892;SDS011;8563;52.242;9.098;2023-02-03T09:31:02;6.73;;;2.63;;
16892;SDS011;8563;52.242;9.098;2023-02-03T09:33:35;6.93;;;3.00;;
16892;SDS011;8563;52.242;9.098;2023-02-03T09:36:08;7.47;;;2.60;;
16892;SDS011;8563;52.242;9.098;2023-02-03T09:38:41;11.57;;;2.60;;
16892;SDS011;8563;52.242;9.098;2023-02-03T09:41:16;6.80;;;2.00;;
16892;SDS011;8563;52.242;9.098;2023-02-03T09:44:02;6.13;;;2.80;;
16892;SDS011;8563;52.242;9.098;2023-02-03T09:46:43;6.27;;;2.40;;
16892;SDS011;8563;52.242;9.098;2023-02-03T09:49:20;7.77;;;3.30;;
16892;SDS011;8563;52.242;9.098;2023-02-03T09:51:56;5.57;;;2.30;;
16892;SDS011;8563;52.242;9.098;2023-02-03T09:54:36;3.70;;;2.00;;
16892;SDS011;8563;52.242;9.098;2023-02-03T09:57:15;5.07;;;2.30;;
16892;SDS011;8563;52.242;9.098;2023-02-03T09:59:53;6.23;;;2.73;;
16892;SDS011;8563;52.242;9.098;2023-02-03T10:02:31;6.53;;;2.40;;
16892;SDS011;8563;52.242;9.098;2023-02-03T10:05:16;5.03;;;2.00;;
16892;SDS011;8563;52.242;9.098;2023-02-03T10:07:55;4.17;;;1.87;;
16892;SDS011;8563;52.242;9.098;2023-02-03T10:10:37;5.40;;;2.10;;
16892;SDS011;8563;52.242;9.098;2023-02-03T10:13:14;3.17;;;1.77;;
16892;SDS011;8563;52.242;9.098;2023-02-03T10:18:57;3.37;;;1.60;;
16892;SDS011;8563;52.242;9.098;2023-02-03T10:21:33;3.87;;;1.60;;
16892;SDS011;8563;52.242;9.098;2023-02-03T10:24:08;5.70;;;1.97;;
16892;SDS011;8563;52.242;9.098;2023-02-03T10:26:43;5.67;;;1.57;;
16892;SDS011;8563;52.242;9.098;2023-02-03T10:29:17;4.60;;;1.87;;
16892;SDS011;8563;52.242;9.098;2023-02-03T10:31:53;8.40;;;3.67;;
16892;SDS011;8563;52.242;9.098;2023-02-03T10:34:26;3.60;;;1.63;;
16892;SDS011;8563;52.242;9.098;2023-02-03T10:37:00;5.13;;;2.00;;
16892;SDS011;8563;52.242;9.098;2023-02-03T10:39:43;5.53;;;2.20;;
16892;SDS011;8563;52.242;9.098;2023-02-03T10:42:17;5.93;;;2.37;;
16892;SDS011;8563;52.242;9.098;2023-02-03T10:44:52;8.90;;;1.90;;
16892;SDS011;8563;52.242;9.098;2023-02-03T10:47:30;7.70;;;2.10;;
16892;SDS011;8563;52.242;9.098;2023-02-03T10:50:05;8.27;;;2.20;;
16892;SDS011;8563;52.242;9.098;2023-02-03T10:52:44;7.37;;;2.00;;
16892;SDS011;8563;52.242;9.098;2023-02-03T10:55:29;7.43;;;2.27;;
16892;SDS011;8563;52.242;9.098;2023-02-03T10:58:05;9.63;;;2.20;;
16892;SDS011;8563;52.242;9.098;2023-02-03T11:00:45;8.80;;;2.60;;
16892;SDS011;8563;52.242;9.098;2023-02-03T11:03:27;11.93;;;3.03;;
16892;SDS011;8563;52.242;9.098;2023-02-03T11:06:03;10.63;;;2.40;;
16892;SDS011;8563;52.242;9.098;2023-02-03T11:08:38;7.17;;;2.07;;
16892;SDS011;8563;52.242;9.098;2023-02-03T11:11:15;8.60;;;2.73;;
16892;SDS011;8563;52.242;9.098;2023-02-03T11:13:52;9.57;;;2.43;;
16892;SDS011;8563;52.242;9.098;2023-02-03T11:16:25;8.87;;;2.27;;
16892;SDS011;8563;52.242;9.098;2023-02-03T11:18:59;7.67;;;3.17;;
16892;SDS011;8563;52.242;9.098;2023-02-03T11:21:39;15.80;;;3.03;;
16892;SDS011;8563;52.242;9.098;2023-02-03T11:24:17;10.27;;;2.30;;
16892;SDS011;8563;52.242;9.098;2023-02-03T11:26:52;9.87;;;2.50;;
16892;SDS011;8563;52.242;9.098;2023-02-03T11:29:28;10.73;;;2.60;;
16892;SDS011;8563;52.242;9.098;2023-02-03T11:32:04;8.43;;;2.33;;
16892;SDS011;8563;52.242;9.098;2023-02-03T11:34:48;12.90;;;2.73;;
16892;SDS011;8563;52.242;9.098;2023-02-03T11:37:28;9.90;;;2.53;;
16892;SDS011;8563;52.242;9.098;2023-02-03T11:40:25;12.10;;;2.47;;
16892;SDS011;8563;52.242;9.098;2023-02-03T11:42:59;17.17;;;2.97;;
16892;SDS011;8563;52.242;9.098;2023-02-03T11:45:35;10.47;;;2.57;;
16892;SDS011;8563;52.242;9.098;2023-02-03T11:48:16;16.47;;;3.27;;
16892;SDS011;8563;52.242;9.098;2023-02-03T11:50:59;15.30;;;3.50;;
16892;SDS011;8563;52.242;9.098;2023-02-03T11:53:39;12.83;;;3.17;;
16892;SDS011;8563;52.242;9.098;2023-02-03T11:56:37;15.20;;;3.53;;
16892;SDS011;8563;52.242;9.098;2023-02-03T11:59:30;14.67;;;4.07;;
16892;SDS011;8563;52.242;9.098;2023-02-03T12:02:24;28.00;;;11.83;;
16892;SDS011;8563;52.242;9.098;2023-02-03T12:05:38;18.50;;;4.80;;
16892;SDS011;8563;52.242;9.098;2023-02-03T12:08:20;33.60;;;14.90;;
16892;SDS011;8563;52.242;9.098;2023-02-03T12:11:03;18.70;;;4.43;;
16892;SDS011;8563;52.242;9.098;2023-02-03T12:13:51;13.27;;;3.33;;
16892;SDS011;8563;52.242;9.098;2023-02-03T12:19:44;13.07;;;3.07;;
16892;SDS011;8563;52.242;9.098;2023-02-03T12:22:29;14.07;;;3.47;;
16892;SDS011;8563;52.242;9.098;2023-02-03T12:25:19;12.10;;;3.50;;
16892;SDS011;8563;52.242;9.098;2023-02-03T12:28:03;14.73;;;3.57;;
16892;SDS011;8563;52.242;9.098;2023-02-03T12:30:46;17.63;;;3.97;;
16892;SDS011;8563;52.242;9.098;2023-02-03T12:33:23;15.27;;;3.67;;
16892;SDS011;8563;52.242;9.098;2023-02-03T12:36:02;18.63;;;3.80;;
16892;SDS011;8563;52.242;9.098;2023-02-03T12:38:39;12.70;;;3.43;;
16892;SDS011;8563;52.242;9.098;2023-02-03T12:41:17;15.90;;;3.87;;
16892;SDS011;8563;52.242;9.098;2023-02-03T12:43:54;15.17;;;4.13;;
16892;SDS011;8563;52.242;9.098;2023-02-03T12:46:31;18.20;;;4.50;;
16892;SDS011;8563;52.242;9.098;2023-02-03T12:49:11;15.60;;;4.00;;
16892;SDS011;8563;52.242;9.098;2023-02-03T12:51:52;17.67;;;4.27;;
16892;SDS011;8563;52.242;9.098;2023-02-03T12:54:31;18.70;;;4.33;;
16892;SDS011;8563;52.242;9.098;2023-02-03T12:57:15;18.93;;;4.10;;
16892;SDS011;8563;52.242;9.098;2023-02-03T13:02:50;18.50;;;4.00;;
16892;SDS011;8563;52.242;9.098;2023-02-03T13:05:31;17.27;;;3.73;;
16892;SDS011;8563;52.242;9.098;2023-02-03T13:08:12;17.17;;;3.90;;
16892;SDS011;8563;52.242;9.098;2023-02-03T13:10:54;14.40;;;3.30;;
16892;SDS011;8563;52.242;9.098;2023-02-03T13:13:31;18.27;;;3.90;;
16892;SDS011;8563;52.242;9.098;2023-02-03T13:16:06;20.50;;;5.30;;
16892;SDS011;8563;52.242;9.098;2023-02-03T13:18:43;22.07;;;5.03;;
16892;SDS011;8563;52.242;9.098;2023-02-03T13:21:19;13.93;;;3.73;;
16892;SDS011;8563;52.242;9.098;2023-02-03T13:23:52;16.53;;;4.23;;
16892;SDS011;8563;52.242;9.098;2023-02-03T13:26:36;14.87;;;3.83;;
16892;SDS011;8563;52.242;9.098;2023-02-03T13:29:29;17.00;;;4.10;;
16892;SDS011;8563;52.242;9.098;2023-02-03T13:32:20;13.73;;;3.47;;
16892;SDS011;8563;52.242;9.098;2023-02-03T13:35:07;20.00;;;4.23;;
16892;SDS011;8563;52.242;9.098;2023-02-03T13:41:15;13.67;;;3.60;;
16892;SDS011;8563;52.242;9.098;2023-02-03T13:43:51;15.13;;;3.80;;
16892;SDS011;8563;52.242;9.098;2023-02-03T13:46:26;17.47;;;3.80;;
16892;SDS011;8563;52.242;9.098;2023-02-03T13:49:02;15.37;;;4.03;;
16892;SDS011;8563;52.242;9.098;2023-02-03T13:51:37;16.93;;;4.17;;
16892;SDS011;8563;52.242;9.098;2023-02-03T13:54:19;15.97;;;3.80;;
16892;SDS011;8563;52.242;9.098;2023-02-03T13:56:56;14.60;;;5.03;;
16892;SDS011;8563;52.242;9.098;2023-02-03T13:59:38;22.00;;;6.63;;
16892;SDS011;8563;52.242;9.098;2023-02-03T14:11:38;15.90;;;3.83;;
16892;SDS011;8563;52.242;9.098;2023-02-03T14:20:39;14.93;;;4.13;;
16892;SDS011;8563;52.242;9.098;2023-02-03T14:23:32;19.40;;;4.13;;
16892;SDS011;8563;52.242;9.098;2023-02-03T14:26:16;17.50;;;4.17;;
16892;SDS011;8563;52.242;9.098;2023-02-03T14:28:51;20.23;;;4.00;;
16892;SDS011;8563;52.242;9.098;2023-02-03T14:31:23;21.13;;;4.50;;
16892;SDS011;8563;52.242;9.098;2023-02-03T14:34:01;19.27;;;4.23;;
16892;SDS011;8563;52.242;9.098;2023-02-03T14:36:48;19.13;;;4.20;;
16892;SDS011;8563;52.242;9.098;2023-02-03T14:43:03;18.83;;;4.10;;
16892;SDS011;8563;52.242;9.098;2023-02-03T14:45:58;17.90;;;4.17;;
16892;SDS011;8563;52.242;9.098;2023-02-03T14:48:50;18.10;;;4.33;;
16892;SDS011;8563;52.242;9.098;2023-02-03T14:51:36;12.83;;;3.10;;
16892;SDS011;8563;52.242;9.098;2023-02-03T14:54:29;17.30;;;3.53;;
16892;SDS011;8563;52.242;9.098;2023-02-03T14:57:17;16.97;;;4.27;;
16892;SDS011;8563;52.242;9.098;2023-02-03T15:00:00;14.23;;;3.03;;
16892;SDS011;8563;52.242;9.098;2023-02-03T15:02:35;11.87;;;3.20;;
16892;SDS011;8563;52.242;9.098;2023-02-03T15:05:53;14.77;;;2.90;;
16892;SDS011;8563;52.242;9.098;2023-02-03T15:08:32;13.87;;;3.20;;
16892;SDS011;8563;52.242;9.098;2023-02-03T15:14:20;14.40;;;3.63;;
16892;SDS011;8563;52.242;9.098;2023-02-03T15:16:57;10.33;;;3.20;;
16892;SDS011;8563;52.242;9.098;2023-02-03T15:19:31;15.53;;;3.63;;
16892;SDS011;8563;52.242;9.098;2023-02-03T15:22:16;12.63;;;3.13;;
16892;SDS011;8563;52.242;9.098;2023-02-03T15:24:52;16.93;;;3.67;;
16892;SDS011;8563;52.242;9.098;2023-02-03T15:27:27;14.97;;;3.50;;
16892;SDS011;8563;52.242;9.098;2023-02-03T15:30:13;13.43;;;3.20;;
16892;SDS011;8563;52.242;9.098;2023-02-03T15:32:46;12.93;;;3.10;;
16892;SDS011;8563;52.242;9.098;2023-02-03T15:35:26;21.67;;;6.80;;
16892;SDS011;8563;52.242;9.098;2023-02-03T15:38:02;34.93;;;13.03;;
16892;SDS011;8563;52.242;9.098;2023-02-03T15:40:42;18.83;;;3.90;;
16892;SDS011;8563;52.242;9.098;2023-02-03T15:43:17;15.37;;;5.60;;
16892;SDS011;8563;52.242;9.098;2023-02-03T15:45:54;15.90;;;4.73;;
16892;SDS011;8563;52.242;9.098;2023-02-03T15:48:31;15.37;;;3.33;;
16892;SDS011;8563;52.242;9.098;2023-02-03T15:51:08;12.90;;;4.70;;
16892;SDS011;8563;52.242;9.098;2023-02-03T15:53:46;18.03;;;4.10;;
16892;SDS011;8563;52.242;9.098;2023-02-03T15:56:25;13.93;;;4.50;;
16892;SDS011;8563;52.242;9.098;2023-02-03T15:59:17;13.70;;;3.50;;
16892;SDS011;8563;52.242;9.098;2023-02-03T16:01:51;20.17;;;4.03;;
16892;SDS011;8563;52.242;9.098;2023-02-03T16:04:24;19.23;;;4.03;;
16892;SDS011;8563;52.242;9.098;2023-02-03T16:06:56;15.83;;;3.80;;
16892;SDS011;8563;52.242;9.098;2023-02-03T16:09:30;16.30;;;2.83;;
16892;SDS011;8563;52.242;9.098;2023-02-03T16:12:11;13.83;;;3.23;;
16892;SDS011;8563;52.242;9.098;2023-02-03T16:14:47;16.07;;;4.03;;
16892;SDS011;8563;52.242;9.098;2023-02-03T16:17:24;19.03;;;3.77;;
16892;SDS011;8563;52.242;9.098;2023-02-03T16:22:59;18.10;;;3.47;;
16892;SDS011;8563;52.242;9.098;2023-02-03T16:25:36;16.80;;;3.17;;
16892;SDS011;8563;52.242;9.098;2023-02-03T16:28:14;15.00;;;3.60;;
16892;SDS011;8563;52.242;9.098;2023-02-03T16:31:09;14.47;;;3.60;;